sensor_id;sensor_type;location;lat;lon;timestamp;P1;durP1;ratioP1;P2;durP2;ratioP2
81106;SDS011;70588;53.172;8.620;2023-06-22T00:01:49;5.27;;;4.33;;
81106;SDS011;70588;53.172;8.620;2023-06-22T00:04:14;5.10;;;4.10;;
81106;SDS011;70588;53.172;8.620;2023-06-22T00:06:40;5.00;;;3.53;;
81106;SDS011;70588;53.172;8.620;2023-06-22T00:09:05;5.32;;;4.00;;
81106;SDS011;70588;53.172;8.620;2023-06-22T00:11:32;6.25;;;5.03;;
81106;SDS011;70588;53.172;8.620;2023-06-22T00:14:01;6.28;;;4.57;;
81106;SDS011;70588;53.172;8.620;2023-06-22T00:16:26;6.05;;;4.40;;
81106;SDS011;70588;53.172;8.620;2023-06-22T00:18:52;4.47;;;3.90;;
81106;SDS011;70588;53.172;8.620;2023-06-22T00:21:17;5.32;;;4.20;;
81106;SDS011;70588;53.172;8.620;2023-06-22T00:23:45;6.05;;;4.60;;
81106;SDS011;70588;53.172;8.620;2023-06-22T00:26:11;9.07;;;5.45;;
81106;SDS011;70588;53.172;8.620;2023-06-22T00:28:36;6.55;;;4.75;;
81106;SDS011;70588;53.172;8.620;2023-06-22T00:31:02;5.13;;;4.13;;
81106;SDS011;70588;53.172;8.620;2023-06-22T00:33:27;6.10;;;5.00;;
81106;SDS011;70588;53.172;8.620;2023-06-22T00:35:53;9.18;;;4.70;;
81106;SDS011;70588;53.172;8.620;2023-06-22T00:38:19;7.32;;;5.32;;
81106;SDS011;70588;53.172;8.620;2023-06-22T00:40:44;6.03;;;5.03;;
81106;SDS011;70588;53.172;8.620;2023-06-22T00:43:10;9.25;;;5.78;;
81106;SDS011;70588;53.172;8.620;2023-06-22T00:45:35;5.53;;;4.85;;
81106;SDS011;70588;53.172;8.620;2023-06-22T00:48:01;5.68;;;4.68;;
81106;SDS011;70588;53.172;8.620;2023-06-22T00:50:31;7.13;;;5.35;;
81106;SDS011;70588;53.172;8.620;2023-06-22T00:52:59;6.57;;;5.03;;
81106;SDS011;70588;53.172;8.620;2023-06-22T00:55:26;5.03;;;4.47;;
81106;SDS011;70588;53.172;8.620;2023-06-22T00:57:53;5.57;;;4.90;;
81106;SDS011;70588;53.172;8.620;2023-06-22T01:00:24;6.65;;;4.82;;
81106;SDS011;70588;53.172;8.620;2023-06-22T01:02:54;8.23;;;5.15;;
81106;SDS011;70588;53.172;8.620;2023-06-22T01:05:20;7.50;;;5.50;;
81106;SDS011;70588;53.172;8.620;2023-06-22T01:11:05;7.68;;;5.00;;
81106;SDS011;70588;53.172;8.620;2023-06-22T01:18:57;7.07;;;5.35;;
81106;SDS011;70588;53.172;8.620;2023-06-22T01:21:28;7.32;;;5.40;;
81106;SDS011;70588;53.172;8.620;2023-06-22T01:29:34;8.30;;;5.80;;
81106;SDS011;70588;53.172;8.620;2023-06-22T01:32:02;6.65;;;5.32;;
81106;SDS011;70588;53.172;8.620;2023-06-22T01:34:31;5.80;;;4.82;;
81106;SDS011;70588;53.172;8.620;2023-06-22T01:36:58;7.20;;;5.50;;
81106;SDS011;70588;53.172;8.620;2023-06-22T01:39:25;8.00;;;5.30;;
81106;SDS011;70588;53.172;8.620;2023-06-22T01:41:51;8.32;;;5.65;;
81106;SDS011;70588;53.172;8.620;2023-06-22T01:44:18;8.73;;;5.85;;
81106;SDS011;70588;53.172;8.620;2023-06-22T01:46:44;6.40;;;4.77;;
81106;SDS011;70588;53.172;8.620;2023-06-22T01:49:10;6.72;;;5.00;;
81106;SDS011;70588;53.172;8.620;2023-06-22T01:51:35;7.22;;;5.45;;
81106;SDS011;70588;53.172;8.620;2023-06-22T01:54:01;8.18;;;7.00;;
81106;SDS011;70588;53.172;8.620;2023-06-22T01:56:27;7.60;;;6.13;;
81106;SDS011;70588;53.172;8.620;2023-06-22T02:01:35;11.18;;;6.78;;
81106;SDS011;70588;53.172;8.620;2023-06-22T02:04:09;9.85;;;6.97;;
81106;SDS011;70588;53.172;8.620;2023-06-22T02:06:39;9.25;;;6.43;;
81106;SDS011;70588;53.172;8.620;2023-06-22T02:09:08;9.48;;;6.43;;
81106;SDS011;70588;53.172;8.620;2023-06-22T02:11:37;7.22;;;5.35;;
81106;SDS011;70588;53.172;8.620;2023-06-22T02:14:06;10.15;;;6.65;;
81106;SDS011;70588;53.172;8.620;2023-06-22T02:16:32;9.55;;;6.18;;
81106;SDS011;70588;53.172;8.620;2023-06-22T02:18:58;9.10;;;6.05;;
81106;SDS011;70588;53.172;8.620;2023-06-22T02:21:28;9.18;;;6.82;;
81106;SDS011;70588;53.172;8.620;2023-06-22T02:23:54;8.68;;;5.93;;
81106;SDS011;70588;53.172;8.620;2023-06-22T02:26:19;7.80;;;5.65;;
81106;SDS011;70588;53.172;8.620;2023-06-22T02:28:44;8.60;;;6.88;;
81106;SDS011;70588;53.172;8.620;2023-06-22T02:31:11;9.00;;;6.85;;
81106;SDS011;70588;53.172;8.620;2023-06-22T02:33:36;9.32;;;6.35;;
81106;SDS011;70588;53.172;8.620;2023-06-22T02:36:02;8.60;;;5.22;;
81106;SDS011;70588;53.172;8.620;2023-06-22T02:38:30;7.18;;;5.50;;
81106;SDS011;70588;53.172;8.620;2023-06-22T02:40:58;8.82;;;5.13;;
81106;SDS011;70588;53.172;8.620;2023-06-22T02:43:23;8.25;;;5.43;;
81106;SDS011;70588;53.172;8.620;2023-06-22T02:45:49;6.22;;;4.60;;
81106;SDS011;70588;53.172;8.620;2023-06-22T02:48:14;6.28;;;4.22;;
81106;SDS011;70588;53.172;8.620;2023-06-22T02:50:40;8.20;;;5.45;;
81106;SDS011;70588;53.172;8.620;2023-06-22T02:53:05;7.50;;;4.83;;
81106;SDS011;70588;53.172;8.620;2023-06-22T02:55:30;7.93;;;5.45;;
81106;SDS011;70588;53.172;8.620;2023-06-22T02:57:56;7.35;;;4.93;;
81106;SDS011;70588;53.172;8.620;2023-06-22T03:00:22;6.75;;;5.45;;
81106;SDS011;70588;53.172;8.620;2023-06-22T03:02:48;9.57;;;5.57;;
81106;SDS011;70588;53.172;8.620;2023-06-22T03:05:14;8.43;;;5.93;;
81106;SDS011;70588;53.172;8.620;2023-06-22T03:07:43;6.45;;;4.82;;
81106;SDS011;70588;53.172;8.620;2023-06-22T03:10:12;7.30;;;5.25;;
81106;SDS011;70588;53.172;8.620;2023-06-22T03:12:38;8.35;;;5.85;;
81106;SDS011;70588;53.172;8.620;2023-06-22T03:15:05;7.85;;;5.40;;
81106;SDS011;70588;53.172;8.620;2023-06-22T03:17:32;7.10;;;5.35;;
81106;SDS011;70588;53.172;8.620;2023-06-22T03:19:58;8.25;;;6.05;;
81106;SDS011;70588;53.172;8.620;2023-06-22T03:22:23;6.67;;;5.23;;
81106;SDS011;70588;53.172;8.620;2023-06-22T03:24:48;8.30;;;5.13;;
81106;SDS011;70588;53.172;8.620;2023-06-22T03:27:14;7.77;;;5.63;;
81106;SDS011;70588;53.172;8.620;2023-06-22T03:29:39;6.53;;;5.20;;
81106;SDS011;70588;53.172;8.620;2023-06-22T03:32:05;5.77;;;5.07;;
81106;SDS011;70588;53.172;8.620;2023-06-22T03:34:31;6.22;;;4.43;;
81106;SDS011;70588;53.172;8.620;2023-06-22T03:36:58;6.85;;;4.72;;
81106;SDS011;70588;53.172;8.620;2023-06-22T03:39:24;5.63;;;4.32;;
81106;SDS011;70588;53.172;8.620;2023-06-22T03:41:49;6.55;;;5.22;;
81106;SDS011;70588;53.172;8.620;2023-06-22T03:44:15;10.23;;;5.47;;
81106;SDS011;70588;53.172;8.620;2023-06-22T03:46:40;6.72;;;5.00;;
81106;SDS011;70588;53.172;8.620;2023-06-22T03:49:05;7.45;;;5.07;;
81106;SDS011;70588;53.172;8.620;2023-06-22T03:51:32;5.50;;;4.47;;
81106;SDS011;70588;53.172;8.620;2023-06-22T03:53:57;8.45;;;5.47;;
81106;SDS011;70588;53.172;8.620;2023-06-22T03:56:23;5.65;;;4.47;;
81106;SDS011;70588;53.172;8.620;2023-06-22T03:58:48;5.82;;;4.57;;
81106;SDS011;70588;53.172;8.620;2023-06-22T04:01:14;8.80;;;4.57;;
81106;SDS011;70588;53.172;8.620;2023-06-22T04:03:41;6.63;;;4.35;;
81106;SDS011;70588;53.172;8.620;2023-06-22T04:06:07;6.00;;;4.47;;
81106;SDS011;70588;53.172;8.620;2023-06-22T04:08:32;8.20;;;4.30;;
81106;SDS011;70588;53.172;8.620;2023-06-22T04:10:58;6.75;;;4.60;;
81106;SDS011;70588;53.172;8.620;2023-06-22T04:13:23;5.75;;;4.32;;
81106;SDS011;70588;53.172;8.620;2023-06-22T04:15:49;5.67;;;4.40;;
81106;SDS011;70588;53.172;8.620;2023-06-22T04:18:14;5.27;;;4.47;;
81106;SDS011;70588;53.172;8.620;2023-06-22T04:20:39;5.97;;;4.68;;
81106;SDS011;70588;53.172;8.620;2023-06-22T04:23:05;5.15;;;4.05;;
81106;SDS011;70588;53.172;8.620;2023-06-22T04:25:30;7.20;;;5.38;;
81106;SDS011;70588;53.172;8.620;2023-06-22T04:27:55;5.22;;;4.30;;
81106;SDS011;70588;53.172;8.620;2023-06-22T04:30:21;8.32;;;5.25;;
81106;SDS011;70588;53.172;8.620;2023-06-22T04:32:47;5.72;;;4.88;;
81106;SDS011;70588;53.172;8.620;2023-06-22T04:35:21;8.38;;;5.00;;
81106;SDS011;70588;53.172;8.620;2023-06-22T04:37:47;7.32;;;5.25;;
81106;SDS011;70588;53.172;8.620;2023-06-22T04:40:14;6.68;;;4.60;;
81106;SDS011;70588;53.172;8.620;2023-06-22T04:42:40;7.72;;;4.93;;
81106;SDS011;70588;53.172;8.620;2023-06-22T04:45:05;5.20;;;3.85;;
81106;SDS011;70588;53.172;8.620;2023-06-22T04:47:31;5.18;;;3.95;;
81106;SDS011;70588;53.172;8.620;2023-06-22T04:49:56;4.85;;;3.97;;
81106;SDS011;70588;53.172;8.620;2023-06-22T04:52:22;8.18;;;5.80;;
81106;SDS011;70588;53.172;8.620;2023-06-22T04:54:47;6.70;;;4.68;;
81106;SDS011;70588;53.172;8.620;2023-06-22T04:57:14;6.15;;;4.55;;
81106;SDS011;70588;53.172;8.620;2023-06-22T04:59:40;5.88;;;4.45;;
81106;SDS011;70588;53.172;8.620;2023-06-22T05:02:07;6.63;;;4.47;;
81106;SDS011;70588;53.172;8.620;2023-06-22T05:04:33;6.53;;;4.85;;
81106;SDS011;70588;53.172;8.620;2023-06-22T05:07:00;6.72;;;4.75;;
81106;SDS011;70588;53.172;8.620;2023-06-22T05:09:27;7.55;;;4.88;;
81106;SDS011;70588;53.172;8.620;2023-06-22T05:11:54;6.15;;;4.53;;
81106;SDS011;70588;53.172;8.620;2023-06-22T05:14:19;6.05;;;4.25;;
81106;SDS011;70588;53.172;8.620;2023-06-22T05:16:45;8.68;;;4.75;;
81106;SDS011;70588;53.172;8.620;2023-06-22T05:19:11;6.32;;;4.47;;
81106;SDS011;70588;53.172;8.620;2023-06-22T05:21:37;6.57;;;4.53;;
81106;SDS011;70588;53.172;8.620;2023-06-22T05:24:03;7.47;;;4.80;;
81106;SDS011;70588;53.172;8.620;2023-06-22T05:26:29;7.68;;;4.95;;
81106;SDS011;70588;53.172;8.620;2023-06-22T05:28:56;5.53;;;4.50;;
81106;SDS011;70588;53.172;8.620;2023-06-22T05:31:22;8.65;;;5.38;;
81106;SDS011;70588;53.172;8.620;2023-06-22T05:33:48;7.22;;;5.25;;
81106;SDS011;70588;53.172;8.620;2023-06-22T05:36:16;9.80;;;6.35;;
81106;SDS011;70588;53.172;8.620;2023-06-22T05:38:41;5.93;;;5.05;;
81106;SDS011;70588;53.172;8.620;2023-06-22T05:41:07;7.57;;;5.20;;
81106;SDS011;70588;53.172;8.620;2023-06-22T05:43:33;7.53;;;6.22;;
81106;SDS011;70588;53.172;8.620;2023-06-22T05:45:59;7.90;;;5.78;;
81106;SDS011;70588;53.172;8.620;2023-06-22T05:48:25;7.65;;;5.50;;
81106;SDS011;70588;53.172;8.620;2023-06-22T05:50:51;6.07;;;4.65;;
81106;SDS011;70588;53.172;8.620;2023-06-22T05:53:16;8.23;;;5.93;;
81106;SDS011;70588;53.172;8.620;2023-06-22T05:55:42;8.25;;;6.03;;
81106;SDS011;70588;53.172;8.620;2023-06-22T05:58:08;8.77;;;6.13;;
81106;SDS011;70588;53.172;8.620;2023-06-22T06:00:33;9.23;;;6.68;;
81106;SDS011;70588;53.172;8.620;2023-06-22T06:02:59;7.30;;;5.70;;
81106;SDS011;70588;53.172;8.620;2023-06-22T06:05:31;8.63;;;6.55;;
81106;SDS011;70588;53.172;8.620;2023-06-22T06:07:57;8.77;;;6.22;;
81106;SDS011;70588;53.172;8.620;2023-06-22T06:10:23;7.88;;;5.82;;
81106;SDS011;70588;53.172;8.620;2023-06-22T06:12:48;7.75;;;5.60;;
81106;SDS011;70588;53.172;8.620;2023-06-22T06:15:14;10.90;;;6.83;;
81106;SDS011;70588;53.172;8.620;2023-06-22T06:17:49;13.30;;;8.73;;
81106;SDS011;70588;53.172;8.620;2023-06-22T06:20:17;10.23;;;6.72;;
81106;SDS011;70588;53.172;8.620;2023-06-22T06:22:43;10.40;;;7.75;;
81106;SDS011;70588;53.172;8.620;2023-06-22T06:25:09;13.27;;;8.55;;
81106;SDS011;70588;53.172;8.620;2023-06-22T06:27:35;7.32;;;5.78;;
81106;SDS011;70588;53.172;8.620;2023-06-22T06:30:00;10.18;;;7.30;;
81106;SDS011;70588;53.172;8.620;2023-06-22T06:32:26;8.88;;;6.45;;
81106;SDS011;70588;53.172;8.620;2023-06-22T06:34:52;6.23;;;4.70;;
81106;SDS011;70588;53.172;8.620;2023-06-22T06:37:17;8.25;;;6.03;;
81106;SDS011;70588;53.172;8.620;2023-06-22T06:39:43;8.32;;;6.25;;
81106;SDS011;70588;53.172;8.620;2023-06-22T06:42:09;7.50;;;5.65;;
81106;SDS011;70588;53.172;8.620;2023-06-22T06:44:36;7.38;;;5.15;;
81106;SDS011;70588;53.172;8.620;2023-06-22T06:47:02;8.55;;;6.03;;
81106;SDS011;70588;53.172;8.620;2023-06-22T06:49:28;7.13;;;5.20;;
81106;SDS011;70588;53.172;8.620;2023-06-22T06:51:54;8.27;;;5.72;;
81106;SDS011;70588;53.172;8.620;2023-06-22T06:54:20;9.63;;;5.93;;
81106;SDS011;70588;53.172;8.620;2023-06-22T06:56:46;6.25;;;4.72;;
81106;SDS011;70588;53.172;8.620;2023-06-22T06:59:13;8.38;;;5.13;;
81106;SDS011;70588;53.172;8.620;2023-06-22T07:01:39;6.32;;;4.75;;
81106;SDS011;70588;53.172;8.620;2023-06-22T07:04:04;8.68;;;5.50;;
81106;SDS011;70588;53.172;8.620;2023-06-22T07:06:29;8.07;;;5.00;;
81106;SDS011;70588;53.172;8.620;2023-06-22T07:08:57;7.72;;;4.70;;
81106;SDS011;70588;53.172;8.620;2023-06-22T07:11:22;6.53;;;4.55;;
81106;SDS011;70588;53.172;8.620;2023-06-22T07:13:48;9.27;;;5.00;;
81106;SDS011;70588;53.172;8.620;2023-06-22T07:16:13;5.80;;;4.50;;
81106;SDS011;70588;53.172;8.620;2023-06-22T07:18:39;6.73;;;4.10;;
81106;SDS011;70588;53.172;8.620;2023-06-22T07:21:05;4.57;;;3.17;;
81106;SDS011;70588;53.172;8.620;2023-06-22T07:23:31;5.40;;;3.28;;
81106;SDS011;70588;53.172;8.620;2023-06-22T07:25:57;5.63;;;3.80;;
81106;SDS011;70588;53.172;8.620;2023-06-22T07:28:22;4.25;;;2.70;;
81106;SDS011;70588;53.172;8.620;2023-06-22T07:30:48;4.67;;;2.90;;
81106;SDS011;70588;53.172;8.620;2023-06-22T07:33:13;2.90;;;2.63;;
81106;SDS011;70588;53.172;8.620;2023-06-22T07:35:38;4.20;;;2.40;;
81106;SDS011;70588;53.172;8.620;2023-06-22T07:38:04;4.32;;;2.55;;
81106;SDS011;70588;53.172;8.620;2023-06-22T07:40:30;4.65;;;2.97;;
81106;SDS011;70588;53.172;8.620;2023-06-22T07:42:55;4.32;;;2.83;;
81106;SDS011;70588;53.172;8.620;2023-06-22T07:45:21;6.05;;;2.80;;
81106;SDS011;70588;53.172;8.620;2023-06-22T07:47:46;4.00;;;3.10;;
81106;SDS011;70588;53.172;8.620;2023-06-22T07:50:12;4.47;;;2.70;;
81106;SDS011;70588;53.172;8.620;2023-06-22T07:52:40;3.47;;;2.72;;
81106;SDS011;70588;53.172;8.620;2023-06-22T07:55:06;5.03;;;2.53;;
81106;SDS011;70588;53.172;8.620;2023-06-22T07:57:32;3.50;;;2.33;;
81106;SDS011;70588;53.172;8.620;2023-06-22T07:59:59;3.22;;;2.15;;
81106;SDS011;70588;53.172;8.620;2023-06-22T08:02:25;4.57;;;2.40;;
81106;SDS011;70588;53.172;8.620;2023-06-22T08:04:50;3.60;;;2.33;;
81106;SDS011;70588;53.172;8.620;2023-06-22T08:07:16;3.28;;;2.50;;
81106;SDS011;70588;53.172;8.620;2023-06-22T08:09:46;4.95;;;2.40;;
81106;SDS011;70588;53.172;8.620;2023-06-22T08:12:13;3.47;;;2.30;;
81106;SDS011;70588;53.172;8.620;2023-06-22T08:14:39;5.22;;;2.33;;
81106;SDS011;70588;53.172;8.620;2023-06-22T08:17:05;3.03;;;2.70;;
81106;SDS011;70588;53.172;8.620;2023-06-22T08:19:30;4.50;;;3.17;;
81106;SDS011;70588;53.172;8.620;2023-06-22T08:21:56;2.50;;;2.08;;
81106;SDS011;70588;53.172;8.620;2023-06-22T08:24:22;3.30;;;2.17;;
81106;SDS011;70588;53.172;8.620;2023-06-22T08:26:49;3.67;;;2.25;;
81106;SDS011;70588;53.172;8.620;2023-06-22T08:29:16;1.67;;;1.58;;
81106;SDS011;70588;53.172;8.620;2023-06-22T08:31:42;3.07;;;2.13;;
81106;SDS011;70588;53.172;8.620;2023-06-22T08:34:07;3.43;;;2.80;;
81106;SDS011;70588;53.172;8.620;2023-06-22T08:36:32;3.63;;;2.45;;
81106;SDS011;70588;53.172;8.620;2023-06-22T08:39:06;4.32;;;2.85;;
81106;SDS011;70588;53.172;8.620;2023-06-22T08:41:32;3.20;;;2.47;;
81106;SDS011;70588;53.172;8.620;2023-06-22T08:43:57;5.57;;;2.95;;
81106;SDS011;70588;53.172;8.620;2023-06-22T08:46:23;3.17;;;2.53;;
81106;SDS011;70588;53.172;8.620;2023-06-22T08:48:55;4.30;;;2.85;;
81106;SDS011;70588;53.172;8.620;2023-06-22T08:51:21;4.07;;;2.75;;
81106;SDS011;70588;53.172;8.620;2023-06-22T08:53:46;5.40;;;2.78;;
81106;SDS011;70588;53.172;8.620;2023-06-22T08:56:11;3.73;;;2.77;;
81106;SDS011;70588;53.172;8.620;2023-06-22T08:58:37;3.17;;;2.72;;
81106;SDS011;70588;53.172;8.620;2023-06-22T09:01:02;4.80;;;3.40;;
81106;SDS011;70588;53.172;8.620;2023-06-22T09:03:28;5.05;;;3.17;;
81106;SDS011;70588;53.172;8.620;2023-06-22T09:05:53;3.85;;;2.72;;
81106;SDS011;70588;53.172;8.620;2023-06-22T09:08:19;4.63;;;3.30;;
81106;SDS011;70588;53.172;8.620;2023-06-22T09:10:44;4.70;;;2.70;;
81106;SDS011;70588;53.172;8.620;2023-06-22T09:13:10;5.10;;;2.90;;
81106;SDS011;70588;53.172;8.620;2023-06-22T09:15:35;4.85;;;2.80;;
81106;SDS011;70588;53.172;8.620;2023-06-22T09:18:01;3.55;;;2.80;;
81106;SDS011;70588;53.172;8.620;2023-06-22T09:20:26;4.15;;;2.63;;
81106;SDS011;70588;53.172;8.620;2023-06-22T09:22:52;4.75;;;3.00;;
81106;SDS011;70588;53.172;8.620;2023-06-22T09:25:17;2.70;;;2.20;;
81106;SDS011;70588;53.172;8.620;2023-06-22T09:27:45;4.68;;;2.88;;
81106;SDS011;70588;53.172;8.620;2023-06-22T09:30:11;5.07;;;2.58;;
81106;SDS011;70588;53.172;8.620;2023-06-22T09:32:37;4.43;;;2.65;;
81106;SDS011;70588;53.172;8.620;2023-06-22T09:35:03;4.18;;;2.85;;
81106;SDS011;70588;53.172;8.620;2023-06-22T09:37:30;4.95;;;3.33;;
81106;SDS011;70588;53.172;8.620;2023-06-22T09:39:56;5.47;;;3.78;;
81106;SDS011;70588;53.172;8.620;2023-06-22T09:42:21;5.22;;;3.40;;
81106;SDS011;70588;53.172;8.620;2023-06-22T09:44:46;6.00;;;2.88;;
81106;SDS011;70588;53.172;8.620;2023-06-22T09:47:12;4.53;;;3.08;;
81106;SDS011;70588;53.172;8.620;2023-06-22T09:49:37;4.00;;;3.23;;
81106;SDS011;70588;53.172;8.620;2023-06-22T09:52:03;4.57;;;3.10;;
81106;SDS011;70588;53.172;8.620;2023-06-22T09:54:28;4.00;;;2.85;;
81106;SDS011;70588;53.172;8.620;2023-06-22T09:56:54;5.40;;;3.83;;
81106;SDS011;70588;53.172;8.620;2023-06-22T09:59:19;4.95;;;3.97;;
81106;SDS011;70588;53.172;8.620;2023-06-22T10:01:44;4.17;;;3.13;;
81106;SDS011;70588;53.172;8.620;2023-06-22T10:04:10;4.38;;;3.00;;
81106;SDS011;70588;53.172;8.620;2023-06-22T10:06:35;3.88;;;2.95;;
81106;SDS011;70588;53.172;8.620;2023-06-22T10:09:01;5.47;;;3.53;;
81106;SDS011;70588;53.172;8.620;2023-06-22T10:11:26;3.38;;;2.83;;
81106;SDS011;70588;53.172;8.620;2023-06-22T10:13:55;4.68;;;3.20;;
81106;SDS011;70588;53.172;8.620;2023-06-22T10:16:20;8.20;;;3.92;;
81106;SDS011;70588;53.172;8.620;2023-06-22T10:18:46;4.65;;;3.58;;
81106;SDS011;70588;53.172;8.620;2023-06-22T10:21:11;4.47;;;2.70;;
81106;SDS011;70588;53.172;8.620;2023-06-22T10:23:36;4.60;;;3.60;;
81106;SDS011;70588;53.172;8.620;2023-06-22T10:26:02;5.17;;;3.43;;
81106;SDS011;70588;53.172;8.620;2023-06-22T10:28:27;5.40;;;3.83;;
81106;SDS011;70588;53.172;8.620;2023-06-22T10:30:52;5.10;;;3.45;;
81106;SDS011;70588;53.172;8.620;2023-06-22T10:33:18;5.55;;;3.42;;
81106;SDS011;70588;53.172;8.620;2023-06-22T10:35:44;3.65;;;2.92;;
81106;SDS011;70588;53.172;8.620;2023-06-22T10:38:09;5.50;;;4.45;;
81106;SDS011;70588;53.172;8.620;2023-06-22T10:40:34;4.57;;;3.67;;
81106;SDS011;70588;53.172;8.620;2023-06-22T10:43:00;4.35;;;3.58;;
81106;SDS011;70588;53.172;8.620;2023-06-22T10:45:26;3.95;;;3.35;;
81106;SDS011;70588;53.172;8.620;2023-06-22T10:47:52;4.95;;;3.53;;
81106;SDS011;70588;53.172;8.620;2023-06-22T10:50:17;6.60;;;4.22;;
81106;SDS011;70588;53.172;8.620;2023-06-22T10:52:43;4.57;;;3.88;;
81106;SDS011;70588;53.172;8.620;2023-06-22T10:55:08;5.10;;;3.63;;
81106;SDS011;70588;53.172;8.620;2023-06-22T10:57:34;6.15;;;4.18;;
81106;SDS011;70588;53.172;8.620;2023-06-22T11:00:01;7.05;;;4.78;;
81106;SDS011;70588;53.172;8.620;2023-06-22T11:02:29;5.35;;;3.97;;
81106;SDS011;70588;53.172;8.620;2023-06-22T11:04:54;4.67;;;3.60;;
81106;SDS011;70588;53.172;8.620;2023-06-22T11:07:20;5.97;;;4.78;;
81106;SDS011;70588;53.172;8.620;2023-06-22T11:09:45;5.55;;;4.80;;
81106;SDS011;70588;53.172;8.620;2023-06-22T11:12:11;5.80;;;3.92;;
81106;SDS011;70588;53.172;8.620;2023-06-22T11:14:36;4.03;;;3.60;;
81106;SDS011;70588;53.172;8.620;2023-06-22T11:17:01;7.15;;;4.80;;
81106;SDS011;70588;53.172;8.620;2023-06-22T11:19:27;5.18;;;4.10;;
81106;SDS011;70588;53.172;8.620;2023-06-22T11:21:52;5.03;;;3.97;;
81106;SDS011;70588;53.172;8.620;2023-06-22T11:24:18;5.40;;;4.38;;
81106;SDS011;70588;53.172;8.620;2023-06-22T11:26:43;5.97;;;4.80;;
81106;SDS011;70588;53.172;8.620;2023-06-22T11:29:09;6.50;;;4.60;;
81106;SDS011;70588;53.172;8.620;2023-06-22T11:31:34;6.03;;;4.75;;
81106;SDS011;70588;53.172;8.620;2023-06-22T11:34:01;6.47;;;5.20;;
81106;SDS011;70588;53.172;8.620;2023-06-22T11:36:27;6.15;;;4.38;;
81106;SDS011;70588;53.172;8.620;2023-06-22T11:38:52;4.53;;;3.75;;
81106;SDS011;70588;53.172;8.620;2023-06-22T11:41:18;5.78;;;4.07;;
81106;SDS011;70588;53.172;8.620;2023-06-22T11:43:44;5.07;;;4.35;;
81106;SDS011;70588;53.172;8.620;2023-06-22T11:46:09;8.50;;;5.53;;
81106;SDS011;70588;53.172;8.620;2023-06-22T11:48:35;7.57;;;5.30;;
81106;SDS011;70588;53.172;8.620;2023-06-22T11:51:01;4.30;;;3.78;;
81106;SDS011;70588;53.172;8.620;2023-06-22T11:53:28;4.00;;;3.55;;
81106;SDS011;70588;53.172;8.620;2023-06-22T11:55:53;6.78;;;4.97;;
81106;SDS011;70588;53.172;8.620;2023-06-22T11:58:20;5.72;;;4.40;;
81106;SDS011;70588;53.172;8.620;2023-06-22T12:00:45;5.10;;;3.83;;
81106;SDS011;70588;53.172;8.620;2023-06-22T12:03:11;4.38;;;3.58;;
81106;SDS011;70588;53.172;8.620;2023-06-22T12:05:37;5.57;;;4.07;;
81106;SDS011;70588;53.172;8.620;2023-06-22T12:08:03;3.60;;;3.17;;
81106;SDS011;70588;53.172;8.620;2023-06-22T12:10:28;5.25;;;4.40;;
81106;SDS011;70588;53.172;8.620;2023-06-22T12:12:54;4.28;;;3.78;;
81106;SDS011;70588;53.172;8.620;2023-06-22T12:15:19;4.85;;;3.67;;
81106;SDS011;70588;53.172;8.620;2023-06-22T12:17:45;4.80;;;3.75;;
81106;SDS011;70588;53.172;8.620;2023-06-22T12:20:13;4.50;;;3.67;;
81106;SDS011;70588;53.172;8.620;2023-06-22T12:22:38;4.43;;;3.60;;
81106;SDS011;70588;53.172;8.620;2023-06-22T12:25:04;4.60;;;3.22;;
81106;SDS011;70588;53.172;8.620;2023-06-22T12:27:29;4.50;;;4.10;;
81106;SDS011;70588;53.172;8.620;2023-06-22T12:29:55;4.80;;;3.90;;
81106;SDS011;70588;53.172;8.620;2023-06-22T12:32:21;7.03;;;4.80;;
81106;SDS011;70588;53.172;8.620;2023-06-22T12:34:46;4.45;;;3.70;;
81106;SDS011;70588;53.172;8.620;2023-06-22T12:37:12;5.33;;;4.20;;
81106;SDS011;70588;53.172;8.620;2023-06-22T12:39:37;4.45;;;3.60;;
81106;SDS011;70588;53.172;8.620;2023-06-22T12:42:05;3.47;;;3.03;;
81106;SDS011;70588;53.172;8.620;2023-06-22T12:44:33;3.85;;;3.38;;
81106;SDS011;70588;53.172;8.620;2023-06-22T12:46:59;3.33;;;2.80;;
81106;SDS011;70588;53.172;8.620;2023-06-22T12:49:24;7.03;;;4.37;;
81106;SDS011;70588;53.172;8.620;2023-06-22T12:51:49;4.40;;;3.90;;
81106;SDS011;70588;53.172;8.620;2023-06-22T12:54:15;5.57;;;3.83;;
81106;SDS011;70588;53.172;8.620;2023-06-22T12:56:40;4.38;;;3.30;;
81106;SDS011;70588;53.172;8.620;2023-06-22T12:59:08;3.72;;;3.20;;
81106;SDS011;70588;53.172;8.620;2023-06-22T13:01:34;3.35;;;2.90;;
81106;SDS011;70588;53.172;8.620;2023-06-22T13:03:59;4.85;;;3.53;;
81106;SDS011;70588;53.172;8.620;2023-06-22T13:06:25;4.57;;;3.83;;
81106;SDS011;70588;53.172;8.620;2023-06-22T13:08:50;6.15;;;4.20;;
81106;SDS011;70588;53.172;8.620;2023-06-22T13:11:16;5.78;;;3.70;;
81106;SDS011;70588;53.172;8.620;2023-06-22T13:13:41;4.25;;;3.50;;
81106;SDS011;70588;53.172;8.620;2023-06-22T13:16:07;5.22;;;3.75;;
81106;SDS011;70588;53.172;8.620;2023-06-22T13:18:32;4.18;;;3.78;;
81106;SDS011;70588;53.172;8.620;2023-06-22T13:21:00;4.10;;;3.70;;
81106;SDS011;70588;53.172;8.620;2023-06-22T13:23:26;4.75;;;4.00;;
81106;SDS011;70588;53.172;8.620;2023-06-22T13:25:52;6.28;;;4.32;;
81106;SDS011;70588;53.172;8.620;2023-06-22T13:28:17;3.83;;;3.20;;
81106;SDS011;70588;53.172;8.620;2023-06-22T13:30:43;5.90;;;4.13;;
81106;SDS011;70588;53.172;8.620;2023-06-22T13:33:11;5.05;;;3.78;;
81106;SDS011;70588;53.172;8.620;2023-06-22T13:35:36;7.50;;;4.60;;
81106;SDS011;70588;53.172;8.620;2023-06-22T13:38:02;4.13;;;3.58;;
81106;SDS011;70588;53.172;8.620;2023-06-22T13:40:28;3.45;;;2.80;;
81106;SDS011;70588;53.172;8.620;2023-06-22T13:42:53;6.07;;;3.60;;
81106;SDS011;70588;53.172;8.620;2023-06-22T13:45:19;4.82;;;3.45;;
81106;SDS011;70588;53.172;8.620;2023-06-22T13:47:45;4.18;;;3.13;;
81106;SDS011;70588;53.172;8.620;2023-06-22T13:50:10;5.63;;;4.15;;
81106;SDS011;70588;53.172;8.620;2023-06-22T13:52:37;3.85;;;3.45;;
81106;SDS011;70588;53.172;8.620;2023-06-22T13:55:03;4.05;;;3.33;;
81106;SDS011;70588;53.172;8.620;2023-06-22T13:57:29;5.90;;;4.53;;
81106;SDS011;70588;53.172;8.620;2023-06-22T13:59:55;5.68;;;3.90;;
81106;SDS011;70588;53.172;8.620;2023-06-22T14:02:20;3.63;;;3.28;;
81106;SDS011;70588;53.172;8.620;2023-06-22T14:04:45;6.03;;;4.47;;
81106;SDS011;70588;53.172;8.620;2023-06-22T14:07:11;4.22;;;3.83;;
81106;SDS011;70588;53.172;8.620;2023-06-22T14:09:36;4.90;;;3.38;;
81106;SDS011;70588;53.172;8.620;2023-06-22T14:12:08;4.80;;;4.13;;
81106;SDS011;70588;53.172;8.620;2023-06-22T14:14:34;4.63;;;3.80;;
81106;SDS011;70588;53.172;8.620;2023-06-22T14:16:59;5.25;;;3.97;;
81106;SDS011;70588;53.172;8.620;2023-06-22T14:19:25;5.35;;;3.30;;
81106;SDS011;70588;53.172;8.620;2023-06-22T14:21:50;5.00;;;4.50;;
81106;SDS011;70588;53.172;8.620;2023-06-22T14:24:16;3.80;;;3.40;;
81106;SDS011;70588;53.172;8.620;2023-06-22T14:26:41;3.50;;;3.08;;
81106;SDS011;70588;53.172;8.620;2023-06-22T14:29:07;4.50;;;3.58;;
81106;SDS011;70588;53.172;8.620;2023-06-22T14:31:32;3.77;;;3.37;;
81106;SDS011;70588;53.172;8.620;2023-06-22T14:33:58;5.50;;;3.85;;
81106;SDS011;70588;53.172;8.620;2023-06-22T14:36:23;4.50;;;3.58;;
81106;SDS011;70588;53.172;8.620;2023-06-22T14:38:48;5.80;;;3.60;;
81106;SDS011;70588;53.172;8.620;2023-06-22T14:41:14;7.93;;;5.60;;
81106;SDS011;70588;53.172;8.620;2023-06-22T14:43:45;5.55;;;3.75;;
81106;SDS011;70588;53.172;8.620;2023-06-22T14:46:11;3.78;;;3.13;;
81106;SDS011;70588;53.172;8.620;2023-06-22T14:48:37;4.63;;;3.90;;
81106;SDS011;70588;53.172;8.620;2023-06-22T14:51:03;4.57;;;3.97;;
81106;SDS011;70588;53.172;8.620;2023-06-22T14:53:28;3.87;;;3.43;;
81106;SDS011;70588;53.172;8.620;2023-06-22T14:55:53;4.47;;;3.90;;
81106;SDS011;70588;53.172;8.620;2023-06-22T14:58:19;3.95;;;3.60;;